Baton Rouge, LA

9:11 AM CDT on September 02, 2015 (GMT -0500)
Sherwood Forest | | Change Station
CLOSE
Current Station
Personal Weather Station
Location: Baton Rouge, LA
Elevation: 75 ft
Nearby Weather Stations

Elev 75 ft 30.45 °N, 91.06 °W | Updated 4 minutes ago

Overcast
Overcast
81.0 °F
Feels Like 84 °F
N
1.0
Wind Variable Wind from North
Gusts 1.0 mph

Today
High -- | Low -- °F
--% Chance of Precip.
Yesterday
High -- | Low -- °F
Precip. -- in
6:41 AM 7:26 PM
Waning Gibbous, 80% visible
Pressure 30.06 in
Visibility 10.0 miles
Clouds Overcast 10000 ft
Heat Index 84 °F
Dew Point 67 °F
Humidity 63%
Rainfall 0.00 in
Snow Depth Not available.
UV 1 out of 12
Pollen 8.00 out of 12
Air Quality Not available.
Flu Activity Not available.
METAR KBTR 021353Z AUTO 00000KT 10SM OVC100 27/22 A3006 RMK AO2 SLP178 T02670222 TSNO
Pressure 30.06 in
Visibility 10.0 miles
Clouds Overcast 10000 ft
Heat Index 84 °F
Dew Point 67 °F
Humidity 63%
Rainfall 0.00 in
Snow Depth Not available.
UV 1 out of 12
Pollen 8.00 out of 12
Air Quality Not available.
Flu Activity Not available.
METAR KBTR 021353Z AUTO 00000KT 10SM OVC100 27/22 A3006 RMK AO2 SLP178 T02670222 TSNO

10-Day Weather Forecast

×

Almanac

Astronomy

Sep. 02, 2015 Rise Set
Actual Time
Civil Twilight
Nautical Twilight
Astronomical Twilight
Moon
Length of Visible Light
Length of Day
Tomorrow will be .
, % of the Moon is Illuminated

Today's Extremes

State Highs State Lows

Community

WunderPhotos

Upload Photos

1,851,758 photos uploaded!

WunderBlogs® & News

Nearby

Air Quality

  Air Quality AQ Index Pollutant
Not available.

Snow Depth

Station Depth Elevation

Earthquake Activity

City Distance Mag. Time & Date
Minimum magnitude displayed is 2.5.

Coastal Water Temperatures

Place Temperature

Stations

Nearby Weather Stations

Station Location Temp. Windchill Dew Point Humidity Wind Precip. Elev Updated Type